createdAt,value
2024-02-16T00:00:14.620Z,83.60
2024-02-16T00:02:45.570Z,83.70
2024-02-16T00:05:13.783Z,83.90
2024-02-16T00:07:41.504Z,84.60
2024-02-16T00:10:10.392Z,83.40
2024-02-16T00:12:38.055Z,82.50
2024-02-16T00:15:05.789Z,82.30
2024-02-16T00:17:34.668Z,82.60
2024-02-16T00:20:02.429Z,83.30
2024-02-16T00:22:29.991Z,84.40
2024-02-16T00:24:57.297Z,84.90
2024-02-16T00:27:24.675Z,86.00
2024-02-16T00:29:51.997Z,85.40
2024-02-16T00:32:19.340Z,84.80
2024-02-16T00:34:46.827Z,84.90
2024-02-16T00:37:14.045Z,85.70
2024-02-16T00:39:43.960Z,85.00
2024-02-16T00:42:12.361Z,84.90
2024-02-16T00:44:40.273Z,84.30
2024-02-16T00:47:07.902Z,85.60
2024-02-16T00:49:35.553Z,86.00
2024-02-16T00:52:03.678Z,86.60
2024-02-16T00:54:31.100Z,86.60
2024-02-16T00:57:03.959Z,86.50
2024-02-16T00:59:31.740Z,85.70
2024-02-16T01:01:59.273Z,86.00
2024-02-16T01:04:26.695Z,86.40
2024-02-16T01:06:54.114Z,86.80
2024-02-16T01:09:21.489Z,85.90
2024-02-16T01:11:48.848Z,85.40
2024-02-16T01:14:16.668Z,85.00
2024-02-16T01:16:44.216Z,85.10
2024-02-16T01:21:58.921Z,85.40
2024-02-16T01:24:26.488Z,85.40
2024-02-16T01:26:53.866Z,86.60
2024-02-16T01:29:21.184Z,86.50
2024-02-16T01:31:48.428Z,86.70
2024-02-16T01:34:16.252Z,86.40
2024-02-16T01:36:43.586Z,86.10
2024-02-16T01:39:10.973Z,85.50
2024-02-16T01:41:41.152Z,85.80
2024-02-16T01:44:09.117Z,85.60
2024-02-16T01:46:37.012Z,85.20
2024-02-16T01:49:05.269Z,86.50
2024-02-16T01:51:33.513Z,86.50
2024-02-16T01:54:02.315Z,85.70
2024-02-16T01:57:07.188Z,87.10
2024-02-16T01:59:34.802Z,87.00
2024-02-16T02:02:02.068Z,86.30
2024-02-16T02:04:29.687Z,86.10
2024-02-16T02:06:57.249Z,85.80
2024-02-16T02:09:24.682Z,85.80
2024-02-16T02:11:53.333Z,86.90
2024-02-16T02:14:24.028Z,86.90
2024-02-16T02:16:58.555Z,86.40
2024-02-16T02:19:26.788Z,86.60
2024-02-16T02:21:54.064Z,86.80
2024-02-16T02:24:22.192Z,87.10
2024-02-16T02:26:49.557Z,87.40
2024-02-16T02:29:16.884Z,88.10
2024-02-16T02:31:44.307Z,87.10
2024-02-16T02:34:12.045Z,87.80
2024-02-16T02:36:39.449Z,87.50
2024-02-16T02:39:07.372Z,87.20
2024-02-16T02:41:34.714Z,87.70
2024-02-16T02:44:02.012Z,87.90
2024-02-16T02:46:29.298Z,87.30
2024-02-16T02:48:56.768Z,87.70
2024-02-16T02:51:25.150Z,87.30
2024-02-16T02:56:19.742Z,87.90
2024-02-16T02:58:47.002Z,87.30
2024-02-16T03:01:15.265Z,87.00
2024-02-16T03:03:44.281Z,87.60
2024-02-16T03:06:11.938Z,88.60
2024-02-16T03:08:39.310Z,90.30
2024-02-16T03:11:06.926Z,90.40
2024-02-16T03:13:34.508Z,90.60
2024-02-16T03:16:01.767Z,90.20
2024-02-16T03:18:38.420Z,89.90
2024-02-16T03:21:06.096Z,89.70
2024-02-16T03:23:33.409Z,88.80
2024-02-16T03:26:00.666Z,88.90
2024-02-16T03:28:27.860Z,89.30
2024-02-16T03:30:55.186Z,89.30
2024-02-16T03:33:22.843Z,90.10
2024-02-16T03:35:50.285Z,90.20
2024-02-16T03:38:17.611Z,90.20
2024-02-16T03:40:44.850Z,90.30
2024-02-16T03:43:13.196Z,90.20
2024-02-16T03:45:40.486Z,90.10
2024-02-16T03:50:52.839Z,90.00
2024-02-16T03:53:20.116Z,90.10
2024-02-16T03:55:47.366Z,90.30
2024-02-16T03:58:14.689Z,90.20
2024-02-16T04:00:42.045Z,90.50
2024-02-16T04:03:10.629Z,90.80
2024-02-16T04:05:40.270Z,90.90
2024-02-16T04:08:07.783Z,90.80
2024-02-16T04:10:35.554Z,90.60
2024-02-16T04:13:03.772Z,90.40
2024-02-16T04:15:31.371Z,90.60
2024-02-16T04:17:58.735Z,90.90
2024-02-16T04:20:26.120Z,90.80
2024-02-16T04:22:53.397Z,90.70
2024-02-16T04:25:20.958Z,90.30
2024-02-16T04:27:48.285Z,90.50
2024-02-16T04:30:15.589Z,90.80
2024-02-16T04:32:42.844Z,90.70
2024-02-16T04:35:13.429Z,91.00
2024-02-16T04:37:40.876Z,90.90
2024-02-16T04:40:09.359Z,90.80
2024-02-16T04:42:36.568Z,90.50
2024-02-16T04:45:06.619Z,90.60
2024-02-16T04:47:34.294Z,90.50
2024-02-16T04:50:01.754Z,90.40
2024-02-16T04:52:30.975Z,90.40
2024-02-16T04:54:58.854Z,90.20
2024-02-16T04:57:26.162Z,90.10
2024-02-16T04:59:53.532Z,89.90
2024-02-16T05:02:20.790Z,89.80
2024-02-16T05:04:48.075Z,90.10
2024-02-16T05:07:16.946Z,90.40
2024-02-16T05:09:44.501Z,90.10
2024-02-16T05:12:13.038Z,90.20
2024-02-16T05:14:41.655Z,90.20
2024-02-16T05:17:08.889Z,90.90
2024-02-16T05:19:36.880Z,90.20
2024-02-16T05:22:04.895Z,90.00
2024-02-16T05:27:16.691Z,90.60
2024-02-16T05:29:45.517Z,90.30
2024-02-16T05:32:14.106Z,90.40
2024-02-16T05:34:41.560Z,90.00
2024-02-16T05:37:09.729Z,90.50
2024-02-16T05:39:54.875Z,90.40
2024-02-16T05:42:25.136Z,90.40
2024-02-16T05:44:52.651Z,90.40
2024-02-16T05:47:21.021Z,90.10
2024-02-16T05:49:48.575Z,90.30
2024-02-16T05:52:19.345Z,89.90
2024-02-16T05:54:48.118Z,89.60
2024-02-16T05:57:15.843Z,90.30
2024-02-16T05:59:43.396Z,90.20
2024-02-16T06:02:12.264Z,89.90
2024-02-16T06:04:41.117Z,90.20
2024-02-16T06:07:09.428Z,91.00
2024-02-16T06:09:38.730Z,91.50
2024-02-16T06:12:08.652Z,91.60
2024-02-16T06:14:37.809Z,90.80
2024-02-16T06:17:05.243Z,90.40
2024-02-16T06:19:32.706Z,90.70
2024-02-16T06:22:00.312Z,90.50
2024-02-16T06:24:27.688Z,90.40
2024-02-16T06:29:41.537Z,90.40
2024-02-16T06:32:08.897Z,90.10
2024-02-16T06:34:37.241Z,90.10
2024-02-16T06:37:04.875Z,90.20
2024-02-16T06:39:32.603Z,90.30
2024-02-16T06:42:00.724Z,90.30
2024-02-16T06:44:27.989Z,90.10
2024-02-16T06:46:55.413Z,89.90
2024-02-16T06:49:22.619Z,90.10
2024-02-16T06:51:50.021Z,91.10
2024-02-16T06:54:17.278Z,90.90
2024-02-16T06:56:45.382Z,87.80
2024-02-16T06:59:12.842Z,87.70
2024-02-16T07:01:40.162Z,88.40
2024-02-16T07:04:07.433Z,88.20
2024-02-16T07:06:34.814Z,88.40
2024-02-16T07:09:02.260Z,90.00
2024-02-16T07:11:29.924Z,88.50
2024-02-16T07:13:57.180Z,87.40
2024-02-16T07:16:24.377Z,87.20
2024-02-16T07:18:52.044Z,87.00
2024-02-16T07:21:21.985Z,87.00
2024-02-16T07:23:49.523Z,87.00
2024-02-16T07:26:18.307Z,87.20
2024-02-16T07:28:46.027Z,87.40
2024-02-16T07:31:15.552Z,86.70
2024-02-16T07:33:43.754Z,86.80
2024-02-16T07:36:11.217Z,87.10
2024-02-16T07:38:38.477Z,87.70
2024-02-16T07:41:09.486Z,87.50
2024-02-16T07:43:37.002Z,86.40
2024-02-16T07:46:05.057Z,85.80
2024-02-16T07:48:32.674Z,86.60
2024-02-16T07:51:04.028Z,86.30
2024-02-16T07:53:32.820Z,87.40
2024-02-16T07:56:00.207Z,86.90
2024-02-16T07:58:27.476Z,86.20
2024-02-16T08:00:56.741Z,85.90
2024-02-16T08:03:42.943Z,85.50
2024-02-16T08:06:10.597Z,84.70
2024-02-16T08:08:37.980Z,85.20
2024-02-16T08:11:05.504Z,84.20
2024-02-16T08:13:33.152Z,83.40
2024-02-16T08:16:00.498Z,83.50
2024-02-16T08:18:27.912Z,82.60
2024-02-16T08:20:55.498Z,81.90
2024-02-16T08:23:22.712Z,80.90
2024-02-16T08:25:50.032Z,80.40
2024-02-16T08:28:17.299Z,80.00
2024-02-16T08:30:45.714Z,80.00
2024-02-16T08:33:16.105Z,79.20
2024-02-16T08:35:43.964Z,79.00
2024-02-16T08:38:12.271Z,78.70
2024-02-16T08:40:40.636Z,78.40
2024-02-16T08:43:08.620Z,78.60
2024-02-16T08:45:36.399Z,77.10
2024-02-16T08:48:05.660Z,76.80
2024-02-16T08:50:33.127Z,76.30
2024-02-16T08:53:00.363Z,76.10
2024-02-16T08:55:31.224Z,75.40
2024-02-16T08:57:59.123Z,73.90
2024-02-16T09:00:28.255Z,74.40
2024-02-16T09:02:56.382Z,73.90
2024-02-16T09:05:25.867Z,73.10
2024-02-16T09:07:56.468Z,72.90
2024-02-16T09:10:24.484Z,73.30
2024-02-16T09:12:53.210Z,72.70
2024-02-16T09:15:20.461Z,72.40
2024-02-16T09:17:47.713Z,72.20
2024-02-16T09:20:15.358Z,73.10
2024-02-16T09:22:47.122Z,72.10
2024-02-16T09:25:15.635Z,71.70
2024-02-16T09:27:48.279Z,71.40
2024-02-16T09:30:15.828Z,70.10
2024-02-16T09:32:43.562Z,71.20
2024-02-16T09:35:11.258Z,70.40
2024-02-16T09:37:40.592Z,70.30
2024-02-16T09:40:09.630Z,69.70
2024-02-16T09:45:25.856Z,71.50
2024-02-16T09:53:27.752Z,68.90
2024-02-16T09:55:55.577Z,69.30
2024-02-16T09:58:22.980Z,68.30
2024-02-16T10:00:54.684Z,67.40
2024-02-16T10:03:28.984Z,66.70
2024-02-16T10:06:13.090Z,66.70
2024-02-16T10:08:53.446Z,67.40
2024-02-16T10:14:07.144Z,67.10
2024-02-16T10:16:34.642Z,67.20
2024-02-16T10:19:09.557Z,66.80
2024-02-16T10:21:37.068Z,66.50
2024-02-16T10:24:09.738Z,66.30
2024-02-16T10:26:40.765Z,66.30
2024-02-16T10:29:11.089Z,65.60
2024-02-16T10:31:39.136Z,64.70
2024-02-16T10:34:08.623Z,64.50
2024-02-16T10:36:37.667Z,66.70
2024-02-16T10:39:07.230Z,66.80
2024-02-16T10:41:35.888Z,67.00
2024-02-16T10:44:05.464Z,64.10
2024-02-16T10:46:33.592Z,63.80
2024-02-16T10:51:49.362Z,63.80
2024-02-16T10:54:20.752Z,63.20
2024-02-16T10:56:49.120Z,61.90
2024-02-16T10:59:18.236Z,61.10
2024-02-16T11:01:46.527Z,60.70
2024-02-16T11:07:11.678Z,58.80
2024-02-16T11:09:41.542Z,58.70
2024-02-16T11:12:09.861Z,58.20
2024-02-16T11:14:42.880Z,50.10
2024-02-16T11:17:21.260Z,46.80
2024-02-16T11:22:39.829Z,43.20
2024-02-16T11:25:08.883Z,42.50
2024-02-16T11:27:36.549Z,41.50
2024-02-16T11:30:06.433Z,41.20
2024-02-16T11:32:35.995Z,41.40
2024-02-16T11:35:10.407Z,47.50
2024-02-16T11:37:38.123Z,51.40
2024-02-16T11:40:09.460Z,52.60
2024-02-16T11:42:36.821Z,53.10
2024-02-16T11:45:04.639Z,53.30
2024-02-16T11:47:32.097Z,54.00
2024-02-16T11:50:04.251Z,53.50
2024-02-16T11:52:51.969Z,53.00
2024-02-16T11:55:19.223Z,53.30
2024-02-16T11:57:49.618Z,53.50
2024-02-16T12:00:17.192Z,53.30
2024-02-16T12:02:44.677Z,55.00
2024-02-16T12:08:01.273Z,52.70
2024-02-16T12:10:30.356Z,53.60
2024-02-16T12:13:00.442Z,53.00
2024-02-16T12:15:30.071Z,52.50
2024-02-16T12:18:04.704Z,52.50
2024-02-16T12:20:32.914Z,52.80
2024-02-16T12:23:00.771Z,52.10
2024-02-16T12:25:28.036Z,51.70
2024-02-16T12:27:55.372Z,52.20
2024-02-16T12:30:22.617Z,52.00
2024-02-16T12:32:49.928Z,50.20
2024-02-16T12:40:53.049Z,40.40
2024-02-16T12:43:21.403Z,40.50
2024-02-16T12:45:48.933Z,39.70
2024-02-16T12:48:16.983Z,39.60
2024-02-16T12:50:44.329Z,39.20
2024-02-16T12:53:11.821Z,39.20
2024-02-16T12:55:39.195Z,39.30
2024-02-16T12:58:06.608Z,38.30
2024-02-16T13:00:33.971Z,38.60
2024-02-16T13:03:01.482Z,37.90
2024-02-16T13:05:29.057Z,37.40
2024-02-16T13:07:56.571Z,38.20
2024-02-16T13:10:23.974Z,38.10
2024-02-16T13:12:51.234Z,37.80
2024-02-16T13:15:27.088Z,38.30
2024-02-16T13:17:56.891Z,37.80
2024-02-16T13:20:24.583Z,37.90
2024-02-16T13:22:51.908Z,38.10
2024-02-16T13:25:21.555Z,37.00
2024-02-16T13:27:48.925Z,37.40
2024-02-16T13:30:16.391Z,37.00
2024-02-16T13:35:30.148Z,36.60
2024-02-16T13:37:57.346Z,37.50
2024-02-16T13:40:24.946Z,38.80
2024-02-16T13:42:52.282Z,38.30
2024-02-16T13:45:19.652Z,38.10
2024-02-16T13:47:47.134Z,37.90
2024-02-16T13:50:14.731Z,37.10
2024-02-16T13:52:42.204Z,37.00
2024-02-16T13:55:09.662Z,36.00
2024-02-16T13:57:37.298Z,36.40
2024-02-16T14:00:05.013Z,37.50
2024-02-16T14:02:32.377Z,36.90
2024-02-16T14:05:02.745Z,36.40
2024-02-16T14:07:34.022Z,36.50
2024-02-16T14:10:03.065Z,36.60
2024-02-16T14:15:17.236Z,36.60
2024-02-16T14:17:44.766Z,36.00
2024-02-16T14:20:12.867Z,36.40
2024-02-16T14:22:40.298Z,37.10
2024-02-16T14:25:07.769Z,37.80
2024-02-16T14:27:35.095Z,36.50
2024-02-16T14:30:03.432Z,36.70
2024-02-16T14:32:30.750Z,36.50
2024-02-16T14:34:58.159Z,36.60
2024-02-16T14:37:25.732Z,36.80
2024-02-16T14:39:58.001Z,36.40
2024-02-16T14:42:25.820Z,36.70
2024-02-16T14:44:55.094Z,36.70
2024-02-16T14:47:23.607Z,36.40
2024-02-16T14:49:50.971Z,37.30
2024-02-16T14:52:18.316Z,37.80
2024-02-16T14:54:45.632Z,38.80
2024-02-16T14:57:13.061Z,38.60
2024-02-16T14:59:40.383Z,38.20
2024-02-16T15:02:08.462Z,37.90
2024-02-16T15:04:35.830Z,37.90
2024-02-16T15:07:03.091Z,37.90
2024-02-16T15:09:30.610Z,37.70
2024-02-16T15:11:58.300Z,38.30
2024-02-16T15:14:25.660Z,38.60
2024-02-16T15:16:55.113Z,38.70
2024-02-16T15:19:22.406Z,39.00
2024-02-16T15:21:50.034Z,39.40
2024-02-16T15:24:17.378Z,41.20
2024-02-16T15:26:46.021Z,42.80
2024-02-16T15:29:13.306Z,45.00
2024-02-16T15:31:40.579Z,47.60
2024-02-16T15:34:08.112Z,49.40
2024-02-16T15:36:35.887Z,50.70
2024-02-16T15:39:03.264Z,50.60
2024-02-16T15:41:30.874Z,51.00
2024-02-16T15:43:58.234Z,51.70
2024-02-16T15:46:25.541Z,52.30
2024-02-16T15:48:53.223Z,52.50
2024-02-16T15:54:05.769Z,53.00
2024-02-16T15:56:33.076Z,53.50
2024-02-16T15:59:03.117Z,53.80
2024-02-16T16:01:31.877Z,54.40
2024-02-16T16:03:59.530Z,54.80
2024-02-16T16:06:27.386Z,55.00
2024-02-16T16:11:48.085Z,56.50
2024-02-16T16:17:00.419Z,57.80
2024-02-16T16:19:28.711Z,57.30
2024-02-16T16:21:57.387Z,57.80
2024-02-16T16:24:24.698Z,58.50
2024-02-16T16:26:53.934Z,58.90
2024-02-16T16:29:21.316Z,58.50
2024-02-16T16:31:48.644Z,59.80
2024-02-16T16:34:16.027Z,59.00
2024-02-16T16:36:43.456Z,59.30
2024-02-16T16:39:10.891Z,59.80
2024-02-16T16:41:39.392Z,59.10
2024-02-16T16:44:06.574Z,58.90
2024-02-16T16:46:34.005Z,59.40
2024-02-16T16:49:01.308Z,59.40
2024-02-16T16:51:28.583Z,60.80
2024-02-16T16:53:55.942Z,61.20
2024-02-16T16:56:25.986Z,61.80
2024-02-16T16:58:53.283Z,62.00
2024-02-16T17:01:21.178Z,61.90
2024-02-16T17:03:51.663Z,61.80
2024-02-16T17:06:24.723Z,61.80
2024-02-16T17:08:53.036Z,62.60
2024-02-16T17:11:24.265Z,62.90
2024-02-16T17:13:51.752Z,63.70
2024-02-16T17:16:19.043Z,64.20
2024-02-16T17:18:46.361Z,64.20
2024-02-16T17:23:58.702Z,64.30
2024-02-16T17:26:26.011Z,62.60
2024-02-16T17:28:53.317Z,62.10
2024-02-16T17:31:20.740Z,63.50
2024-02-16T17:33:48.288Z,64.30
2024-02-16T17:36:15.759Z,65.00
2024-02-16T17:41:33.224Z,65.90
2024-02-16T17:44:05.004Z,67.80
2024-02-16T17:46:32.277Z,68.20
2024-02-16T17:48:59.700Z,68.80
2024-02-16T17:51:29.336Z,69.20
2024-02-16T17:53:56.736Z,68.80
2024-02-16T17:56:24.258Z,68.40
2024-02-16T17:58:51.546Z,68.00
2024-02-16T18:01:19.395Z,68.70
2024-02-16T18:03:47.585Z,69.10
2024-02-16T18:06:15.113Z,69.00
2024-02-16T18:08:42.440Z,69.70
2024-02-16T18:11:11.980Z,70.20
2024-02-16T18:13:39.438Z,70.00
2024-02-16T18:16:07.090Z,69.90
2024-02-16T18:18:35.214Z,69.80
2024-02-16T18:21:02.824Z,69.50
2024-02-16T18:23:31.577Z,68.60
2024-02-16T18:25:59.543Z,69.40
2024-02-16T18:31:12.158Z,70.30
2024-02-16T18:33:39.668Z,70.20
2024-02-16T18:36:08.422Z,69.50
2024-02-16T18:38:37.255Z,69.60
2024-02-16T18:41:04.639Z,69.50
2024-02-16T18:43:31.909Z,69.40
2024-02-16T18:45:59.939Z,69.60
2024-02-16T18:48:28.025Z,69.20
2024-02-16T18:50:55.437Z,69.30
2024-02-16T18:56:07.640Z,70.90
2024-02-16T18:58:53.824Z,71.90
2024-02-16T19:01:22.474Z,71.80
2024-02-16T19:03:50.187Z,71.40
2024-02-16T19:06:18.245Z,71.50
2024-02-16T19:08:45.516Z,72.00
2024-02-16T19:11:12.813Z,73.50
2024-02-16T19:13:40.137Z,74.10
2024-02-16T19:16:07.930Z,74.80
2024-02-16T19:18:37.615Z,74.90
2024-02-16T19:21:08.425Z,75.30
2024-02-16T19:23:36.004Z,74.80
2024-02-16T19:26:03.252Z,75.20
2024-02-16T19:28:30.503Z,75.20
2024-02-16T19:31:00.583Z,75.80
2024-02-16T19:33:28.212Z,76.00
2024-02-16T19:35:56.086Z,75.80
2024-02-16T19:38:23.456Z,76.10
2024-02-16T19:40:50.737Z,76.10
2024-02-16T19:43:20.386Z,75.80
2024-02-16T19:45:47.709Z,75.80
2024-02-16T19:48:15.058Z,74.70
2024-02-16T19:50:42.581Z,73.90
2024-02-16T19:58:39.784Z,73.50
2024-02-16T20:01:07.219Z,73.40
2024-02-16T20:03:35.524Z,73.90
2024-02-16T20:06:05.582Z,74.30
2024-02-16T20:08:35.258Z,75.30
2024-02-16T20:11:02.653Z,76.20
2024-02-16T20:13:32.584Z,76.50
2024-02-16T20:16:00.044Z,77.50
2024-02-16T20:18:30.420Z,79.20
2024-02-16T20:23:47.577Z,78.10
2024-02-16T20:26:22.217Z,78.20
2024-02-16T20:28:49.543Z,78.70
2024-02-16T20:31:16.808Z,78.80
2024-02-16T20:36:28.928Z,78.10
2024-02-16T20:38:59.057Z,78.10
2024-02-16T20:41:26.472Z,77.70
2024-02-16T20:43:53.851Z,77.70
2024-02-16T20:46:21.752Z,77.50
2024-02-16T20:48:49.082Z,78.30
2024-02-16T20:51:16.629Z,77.90
2024-02-16T20:53:44.450Z,77.90
2024-02-16T20:56:12.091Z,78.50
2024-02-16T20:58:39.389Z,78.80
2024-02-16T21:01:06.857Z,78.80
2024-02-16T21:03:34.392Z,79.00
2024-02-16T21:06:02.884Z,79.80
2024-02-16T21:08:32.660Z,79.50
2024-02-16T21:10:59.960Z,79.20
2024-02-16T21:13:27.278Z,79.00
2024-02-16T21:15:55.185Z,79.50
2024-02-16T21:18:22.568Z,79.50
2024-02-16T21:20:49.978Z,80.00
2024-02-16T21:23:17.245Z,80.20
2024-02-16T21:25:44.462Z,80.50
2024-02-16T21:28:12.962Z,80.30
2024-02-16T21:30:42.089Z,80.50
2024-02-16T21:33:09.613Z,80.70
2024-02-16T21:38:22.566Z,81.60
2024-02-16T21:40:50.184Z,82.30
2024-02-16T21:43:17.426Z,82.50
2024-02-16T21:45:45.463Z,83.00
2024-02-16T21:48:20.051Z,82.40
2024-02-16T21:50:53.249Z,82.50
2024-02-16T21:53:20.657Z,82.20
2024-02-16T21:55:47.995Z,83.30
2024-02-16T21:58:15.305Z,83.10
2024-02-16T22:00:42.699Z,82.40
2024-02-16T22:03:10.165Z,81.70
2024-02-16T22:05:37.594Z,82.00
2024-02-16T22:08:05.191Z,81.20
2024-02-16T22:10:38.181Z,81.90
2024-02-16T22:13:05.694Z,81.90
2024-02-16T22:15:33.616Z,81.70
2024-02-16T22:18:01.033Z,81.10
2024-02-16T22:20:29.142Z,81.10
2024-02-16T22:22:56.444Z,80.90
2024-02-16T22:25:23.749Z,81.30
2024-02-16T22:27:50.981Z,81.90
2024-02-16T22:30:18.406Z,81.90
2024-02-16T22:32:45.911Z,81.70
2024-02-16T22:35:13.171Z,82.10
2024-02-16T22:37:40.361Z,81.60
2024-02-16T22:40:08.384Z,81.20
2024-02-16T22:42:35.761Z,80.70
2024-02-16T22:45:03.221Z,80.40
2024-02-16T22:47:30.636Z,81.20
2024-02-16T22:49:58.001Z,83.10
2024-02-16T22:52:25.326Z,83.80
2024-02-16T22:54:53.139Z,84.70
2024-02-16T22:57:23.379Z,84.80
2024-02-16T22:59:50.663Z,84.60
2024-02-16T23:05:02.244Z,85.90
2024-02-16T23:07:29.601Z,84.70
2024-02-16T23:09:57.040Z,84.10
2024-02-16T23:12:25.334Z,84.50
2024-02-16T23:14:58.706Z,84.10
2024-02-16T23:17:26.006Z,83.80
2024-02-16T23:19:53.272Z,84.10
2024-02-16T23:22:20.507Z,83.90
2024-02-16T23:24:47.886Z,83.90
2024-02-16T23:27:15.300Z,84.30
2024-02-16T23:29:42.882Z,84.20
2024-02-16T23:32:10.268Z,84.30
2024-02-16T23:34:37.646Z,83.60
2024-02-16T23:37:05.057Z,83.10
2024-02-16T23:39:32.578Z,81.90
2024-02-16T23:42:02.609Z,81.80
2024-02-16T23:44:29.957Z,82.20
2024-02-16T23:46:57.377Z,83.00
2024-02-16T23:49:24.825Z,83.60
2024-02-16T23:51:52.132Z,84.00
2024-02-16T23:54:19.686Z,83.30
2024-02-16T23:56:47.221Z,83.30
2024-02-16T23:59:14.497Z,83.70
